Time;durP1;ratioP1;P1;durP2;ratioP2;P2;SDS_P1;SDS_P2;PMS_P1;PMS_P2;Temp;Humidity;BMP_temperature;BMP_pressure;BME280_temperature;BME280_humidity;BME280_pressure;Samples;Min_cycle;Max_cycle;Signal;HPM_P1;HPM_P2
2023/03/25 00:01:08;;;;;;;4.37;3.20;;;;;;;10.48;63.17;95633.22;4986650;28;20448;-67
2023/03/25 00:03:36;;;;;;;3.53;2.40;;;;;;;10.42;63.66;95641.44;4972332;28;20499;-67
2023/03/25 00:06:05;;;;;;;2.97;2.63;;;;;;;10.44;64.01;95642.19;4979490;28;20510;-67
2023/03/25 00:08:31;;;;;;;5.90;2.70;;;;;;;10.34;63.65;95634.81;4977239;28;20440;-67
2023/03/25 00:10:58;;;;;;;4.60;3.07;;;;;;;10.51;63.15;95638.28;4986172;28;20443;-67
2023/03/25 00:13:24;;;;;;;3.80;2.50;;;;;;;10.51;63.03;95630.44;4979139;28;20205;-68
2023/03/25 00:15:52;;;;;;;3.80;2.77;;;;;;;10.37;63.46;95624.19;4970570;28;20917;-65
2023/03/25 00:18:20;;;;;;;5.30;2.87;;;;;;;10.33;63.52;95617.41;4976142;28;20961;-66
2023/03/25 00:20:49;;;;;;;4.30;2.37;;;;;;;10.26;63.62;95621.28;4977736;28;20437;-66
2023/03/25 00:23:16;;;;;;;2.77;2.20;;;;;;;10.28;63.17;95637.81;4974839;28;20486;-67
2023/03/25 00:25:43;;;;;;;2.43;2.10;;;;;;;10.35;63.08;95628.66;4978078;28;20467;-66
2023/03/25 00:28:10;;;;;;;3.10;2.00;;;;;;;10.33;62.93;95641.00;4976666;28;21260;-66
2023/03/25 00:30:41;;;;;;;5.57;3.50;;;;;;;10.34;62.83;95634.81;4976006;28;20794;-66
2023/03/25 00:33:09;;;;;;;2.80;2.13;;;;;;;10.38;62.37;95622.41;4974052;28;20443;-66
2023/03/25 00:35:37;;;;;;;2.63;2.33;;;;;;;10.32;62.61;95625.34;4985392;28;20451;-66
2023/03/25 00:38:02;;;;;;;3.30;2.70;;;;;;;10.31;62.83;95626.31;4976783;28;20798;-66
2023/03/25 00:40:34;;;;;;;2.33;1.90;;;;;;;10.33;62.66;95625.28;4978550;28;20437;-66
2023/03/25 00:43:00;;;;;;;2.23;2.03;;;;;;;10.25;62.34;95624.84;4982682;28;20967;-66
2023/03/25 00:45:27;;;;;;;3.40;2.50;;;;;;;10.26;62.31;95621.28;4983848;28;20482;-67
2023/03/25 00:47:53;;;;;;;8.37;2.80;;;;;;;10.17;62.77;95619.16;4976757;28;20614;-67
2023/03/25 00:50:18;;;;;;;2.83;1.97;;;;;;;10.17;62.73;95625.25;4984200;28;20531;-67
2023/03/25 00:52:43;;;;;;;2.30;2.00;;;;;;;10.22;62.48;95617.13;4972638;28;20737;-67
2023/03/25 00:55:09;;;;;;;2.87;1.90;;;;;;;10.19;62.71;95622.53;4982202;28;20192;-67
2023/03/25 00:57:35;;;;;;;2.80;1.80;;;;;;;10.20;62.74;95626.00;4977451;28;20200;-67
2023/03/25 01:00:05;;;;;;;3.30;2.37;;;;;;;10.19;62.37;95619.91;4976948;28;20192;-67
2023/03/25 01:02:32;;;;;;;5.47;2.23;;;;;;;10.14;62.69;95617.56;4972361;28;20185;-67
2023/03/25 01:04:58;;;;;;;5.87;2.20;;;;;;;10.15;62.73;95626.25;4976171;28;20548;-67
2023/03/25 01:07:24;;;;;;;3.87;2.43;;;;;;;10.20;62.40;95626.00;4975088;28;20520;-67
2023/03/25 01:09:49;;;;;;;2.97;2.00;;;;;;;10.07;62.62;95634.53;4978251;28;20447;-67
2023/03/25 01:12:17;;;;;;;2.10;1.90;;;;;;;10.13;62.55;95638.59;4979433;28;20268;-67
2023/03/25 01:14:43;;;;;;;3.40;1.80;;;;;;;10.11;62.30;95648.31;4975505;28;20186;-67
2023/03/25 01:17:08;;;;;;;2.20;2.00;;;;;;;10.05;62.63;95651.28;4981778;28;20821;-67
2023/03/25 01:19:34;;;;;;;9.10;2.17;;;;;;;10.04;63.79;95644.34;4986256;28;20180;-67
2023/03/25 01:21:59;;;;;;;6.53;3.13;;;;;;;10.03;63.37;95640.03;4979205;28;20269;-67
2023/03/25 01:24:25;;;;;;;6.63;3.30;;;;;;;10.06;63.50;95643.34;4979949;28;20218;-67
2023/03/25 01:26:51;;;;;;;3.27;2.40;;;;;;;10.08;63.37;95646.72;4976271;28;20248;-67
2023/03/25 01:29:19;;;;;;;3.47;1.90;;;;;;;10.15;63.56;95644.59;4982444;28;20702;-66
2023/03/25 01:31:44;;;;;;;3.63;2.10;;;;;;;9.94;64.36;95651.84;4984337;28;20931;-67
2023/03/25 01:34:10;;;;;;;6.53;2.23;;;;;;;9.98;64.56;95652.53;4974216;28;20444;-67
2023/03/25 01:36:38;;;;;;;5.47;1.80;;;;;;;9.99;64.70;95659.47;4972186;28;20267;-67
2023/03/25 01:39:05;;;;;;;5.87;2.07;;;;;;;10.00;64.49;95653.31;4977874;28;20192;-66
2023/03/25 01:41:32;;;;;;;3.20;2.30;;;;;;;9.92;64.44;95651.09;4983064;28;20448;-67
2023/03/25 01:44:28;;;;;;;4.47;1.83;;;;;;;9.92;64.61;95653.69;4977167;28;20476;-67
2023/03/25 01:46:55;;;;;;;3.27;2.17;;;;;;;10.00;64.96;95645.44;4976592;28;20464;-67
2023/03/25 01:49:28;;;;;;;5.80;1.90;;;;;;;9.97;65.38;95649.09;4975326;28;20808;-66
2023/03/25 01:51:58;;;;;;;4.20;2.10;;;;;;;9.93;65.25;95651.00;4982551;28;20448;-67
2023/03/25 01:54:24;;;;;;;2.97;2.30;;;;;;;10.04;65.74;95624.22;4969968;28;20460;-67
2023/03/25 01:56:50;;;;;;;2.77;2.43;;;;;;;9.90;66.36;95632.84;4974865;28;20502;-66
2023/03/25 01:59:18;;;;;;;3.60;2.23;;;;;;;9.89;65.72;95639.00;4973870;28;20715;-65
2023/03/25 02:01:45;;;;;;;2.50;2.03;;;;;;;9.90;65.39;95639.84;4982879;28;20439;-66
2023/03/25 02:04:15;;;;;;;5.10;2.30;;;;;;;9.85;65.44;95634.00;4972503;28;20543;-66
2023/03/25 02:06:49;;;;;;;4.07;2.43;;;;;;;9.85;65.80;95644.47;4975309;28;20533;-66
2023/03/25 02:09:17;;;;;;;3.10;2.40;;;;;;;9.86;66.00;95639.16;4974712;28;20436;-66
2023/03/25 02:11:42;;;;;;;3.93;3.00;;;;;;;9.87;66.24;95630.34;4971723;28;20461;-67
2023/03/25 02:14:12;;;;;;;5.57;2.40;;;;;;;9.85;66.36;95608.66;4978438;28;20511;-67
2023/03/25 02:17:05;;;;;;;6.17;2.60;;;;;;;9.82;66.48;95618.44;4978174;28;20192;-66
2023/03/25 02:19:50;;;;;;;3.20;2.20;;;;;;;9.87;66.38;95606.78;4984066;28;20460;-67
2023/03/25 02:22:49;;;;;;;3.47;2.47;;;;;;;9.82;66.84;95603.56;4968427;28;20746;-67
2023/03/25 02:25:39;;;;;;;3.13;2.03;;;;;;;9.72;65.92;95597.97;4975750;28;20548;-67
2023/03/25 02:28:24;;;;;;;2.57;2.00;;;;;;;9.63;66.82;95593.22;4977960;28;20505;-66
2023/03/25 02:31:10;;;;;;;8.60;2.10;;;;;;;9.63;66.50;95598.44;4983596;28;20546;-66
2023/03/25 02:34:03;;;;;;;4.67;2.93;;;;;;;9.59;66.75;95598.69;4966658;28;20533;-66
2023/03/25 02:37:02;;;;;;;9.13;2.23;;;;;;;9.57;67.04;95600.53;4966391;28;20538;-66
2023/03/25 02:39:34;;;;;;;5.47;2.20;;;;;;;9.61;66.83;95599.47;4981848;28;20474;-66
2023/03/25 02:42:03;;;;;;;3.37;2.40;;;;;;;9.54;67.62;95599.81;4981987;28;20448;-66
2023/03/25 02:44:41;;;;;;;2.73;1.97;;;;;;;9.44;67.21;95602.97;4967065;28;20472;-66
2023/03/25 02:47:10;;;;;;;5.53;2.50;;;;;;;9.63;66.56;95608.94;4979818;28;20454;-66
2023/03/25 02:49:40;;;;;;;3.37;2.00;;;;;;;9.54;67.59;95622.50;4986763;28;20489;-66
2023/03/25 02:52:36;;;;;;;3.47;2.00;;;;;;;9.71;67.20;95630.34;4979432;28;20441;-67
2023/03/25 02:55:11;;;;;;;7.53;3.80;;;;;;;9.59;67.46;95646.72;4979597;28;20855;-66
2023/03/25 02:57:40;;;;;;;3.70;2.00;;;;;;;9.58;67.09;95657.25;4986780;28;20513;-66
2023/03/25 03:00:14;;;;;;;3.90;2.13;;;;;;;9.63;67.30;95665.72;4983798;28;20546;-68
2023/03/25 03:02:44;;;;;;;8.30;2.37;;;;;;;9.64;68.13;95656.94;4975695;28;20436;-66
2023/03/25 03:05:23;;;;;;;3.37;1.93;;;;;;;9.49;67.83;95638.47;4970419;28;20457;-66
2023/03/25 03:07:52;;;;;;;3.43;1.87;;;;;;;9.60;66.60;95644.94;4972292;28;20950;-66
2023/03/25 03:10:29;;;;;;;2.80;1.73;;;;;;;9.53;65.93;95629.53;4975970;28;20470;-66
2023/03/25 03:13:25;;;;;;;4.43;1.63;;;;;;;9.51;65.86;95623.50;4974393;28;20440;-66
2023/03/25 03:16:15;;;;;;;2.13;1.33;;;;;;;9.59;64.79;95607.44;4968479;28;20464;-66
2023/03/25 03:18:50;;;;;;;4.40;2.03;;;;;;;9.52;65.54;95592.97;4981966;28;20948;-66
2023/03/25 03:21:31;;;;;;;2.40;1.60;;;;;;;9.55;65.45;95590.16;4982393;28;20900;-67
2023/03/25 03:24:09;;;;;;;1.93;1.70;;;;;;;9.47;66.47;95597.56;4978920;28;20845;-67
2023/03/25 03:26:45;;;;;;;4.10;1.60;;;;;;;9.58;66.03;95592.63;4969004;28;20562;-67
2023/03/25 03:29:45;;;;;;;3.83;1.80;;;;;;;9.51;66.07;95594.72;4978250;28;20432;-67
2023/03/25 03:32:15;;;;;;;4.50;1.97;;;;;;;9.56;65.72;95606.72;4976157;28;20436;-67
2023/03/25 03:34:50;;;;;;;2.27;1.53;;;;;;;9.51;65.54;95620.91;4973765;28;20433;-67
2023/03/25 03:37:27;;;;;;;2.83;1.47;;;;;;;9.48;64.94;95605.34;4975445;28;20956;-67
2023/03/25 03:39:54;;;;;;;1.97;1.30;;;;;;;9.51;65.25;95602.56;4979655;28;20440;-67
2023/03/25 03:42:33;;;;;;;2.10;1.30;;;;;;;9.54;64.68;95618.13;4984597;28;20532;-67
2023/03/25 03:45:12;;;;;;;5.40;1.47;;;;;;;9.51;64.94;95626.13;4976562;28;21151;-66
2023/03/25 03:47:41;;;;;;;2.93;1.77;;;;;;;9.38;65.69;95630.34;4987182;28;21035;-65
2023/03/25 03:50:30;;;;;;;2.07;1.50;;;;;;;9.55;64.13;95626.84;4986547;28;20439;-66
2023/03/25 03:53:08;;;;;;;2.53;1.17;;;;;;;9.32;66.24;95649.81;4965797;28;20482;-66
2023/03/25 03:55:40;;;;;;;2.97;1.50;;;;;;;9.37;65.25;95657.44;4965762;28;20440;-65
2023/03/25 03:58:14;;;;;;;4.47;1.40;;;;;;;9.38;65.95;95666.13;4961986;28;20433;-68
2023/03/25 04:01:08;;;;;;;3.80;1.63;;;;;;;9.34;66.89;95673.31;4965256;28;20445;-66
2023/03/25 04:03:48;;;;;;;5.23;3.20;;;;;;;9.13;67.66;95677.84;4965927;28;20471;-65
2023/03/25 04:06:34;;;;;;;2.17;1.97;;;;;;;9.15;68.55;95686.47;4965109;28;20468;-66
2023/03/25 04:08:59;;;;;;;3.20;1.63;;;;;;;9.26;67.86;95667.59;4965059;28;21237;-66
2023/03/25 04:11:49;;;;;;;1.43;1.33;;;;;;;9.20;66.46;95657.44;4959448;28;20496;-66
2023/03/25 04:14:15;;;;;;;2.77;1.47;;;;;;;9.17;67.24;95645.38;4960001;28;20182;-66
2023/03/25 04:16:44;;;;;;;2.00;1.57;;;;;;;9.21;66.49;95654.75;4965415;28;20783;-66
2023/03/25 04:19:12;;;;;;;4.53;2.10;;;;;;;9.30;65.92;95648.19;4965876;28;20463;-65
2023/03/25 04:21:38;;;;;;;3.70;2.20;;;;;;;9.36;66.23;95652.28;4965381;28;20468;-66
2023/03/25 04:24:07;;;;;;;2.33;1.47;;;;;;;9.29;66.45;95657.81;4965854;28;20500;-66
2023/03/25 04:26:36;;;;;;;5.60;2.10;;;;;;;9.31;67.03;95663.84;4965238;28;20328;-65
2023/03/25 04:29:03;;;;;;;3.10;1.47;;;;;;;9.26;66.51;95662.34;4963331;28;20443;-66
2023/03/25 04:31:31;;;;;;;4.70;2.37;;;;;;;9.36;67.02;95662.75;4978907;28;20877;-65
2023/03/25 04:33:59;;;;;;;4.37;2.00;;;;;;;9.23;66.54;95667.75;4975444;28;20439;-66
2023/03/25 04:36:32;;;;;;;3.00;2.13;;;;;;;9.20;67.22;95658.28;4974130;28;20457;-65
2023/03/25 04:38:57;;;;;;;6.30;2.40;;;;;;;9.22;66.90;95653.00;4981709;28;20487;-66
2023/03/25 04:41:24;;;;;;;2.10;1.33;;;;;;;9.26;66.84;95646.66;4977156;28;20435;-65
2023/03/25 04:43:50;;;;;;;3.80;1.80;;;;;;;9.18;66.84;95656.69;4982626;28;20217;-66
2023/03/25 04:46:16;;;;;;;6.40;2.70;;;;;;;9.35;66.38;95650.59;4972705;28;20572;-66
2023/03/25 04:48:44;;;;;;;6.60;1.80;;;;;;;9.31;65.91;95665.63;4985248;28;20537;-66
2023/03/25 04:51:11;;;;;;;7.37;1.90;;;;;;;9.24;65.83;95667.69;4980495;28;20428;-67
2023/03/25 04:53:38;;;;;;;5.70;2.10;;;;;;;9.29;65.82;95665.69;4980987;28;20518;-66
2023/03/25 04:56:05;;;;;;;9.43;2.23;;;;;;;9.33;66.23;95669.00;4971998;28;20451;-67
2023/03/25 04:58:31;;;;;;;9.07;2.00;;;;;;;9.22;65.90;95671.31;4979571;28;20475;-67
2023/03/25 05:01:04;;;;;;;6.47;1.67;;;;;;;9.19;66.21;95684.53;4979572;28;20623;-66
2023/03/25 05:03:34;;;;;;;10.80;2.27;;;;;;;9.16;66.91;95676.84;4970324;28;20205;-66
2023/03/25 05:05:59;;;;;;;5.47;2.07;;;;;;;9.17;66.74;95670.69;4981464;28;20595;-66
2023/03/25 05:08:25;;;;;;;3.37;1.70;;;;;;;9.14;66.14;95669.06;4983626;28;20455;-66
2023/03/25 05:10:51;;;;;;;8.50;2.13;;;;;;;9.28;66.06;95679.72;4948469;28;20213;-66
2023/03/25 05:13:16;;;;;;;5.83;1.87;;;;;;;9.24;66.29;95686.00;4978672;28;22261;-67
2023/03/25 05:15:42;;;;;;;5.37;1.90;;;;;;;9.21;66.40;95687.94;4976110;28;20460;-66
2023/03/25 05:18:12;;;;;;;5.83;1.90;;;;;;;9.28;65.65;95684.06;4983978;28;20177;-66
2023/03/25 05:20:41;;;;;;;3.00;1.70;;;;;;;9.27;65.86;95692.88;4984481;28;20173;-66
2023/03/25 05:23:16;;;;;;;1.80;1.43;;;;;;;9.28;65.64;95691.94;4971051;28;20750;-66
2023/03/25 05:25:46;;;;;;;3.80;1.30;;;;;;;9.31;65.16;95695.25;4967854;28;20456;-66
2023/03/25 05:28:15;;;;;;;5.13;1.50;;;;;;;9.21;66.02;95699.25;4972538;28;21073;-66
2023/03/25 05:30:44;;;;;;;2.73;1.50;;;;;;;9.32;65.06;95699.56;4983113;28;20440;-66
2023/03/25 05:33:11;;;;;;;4.90;1.60;;;;;;;9.33;64.66;95700.44;4987308;28;20455;-66
2023/03/25 05:35:37;;;;;;;4.20;1.40;;;;;;;9.26;65.37;95693.78;4985815;28;20542;-66
2023/03/25 05:38:11;;;;;;;5.10;1.57;;;;;;;9.29;64.78;95693.66;4983893;28;20471;-66
2023/03/25 05:40:37;;;;;;;3.70;1.73;;;;;;;9.26;64.32;95688.53;4981626;28;20522;-67
2023/03/25 05:43:02;;;;;;;2.47;1.90;;;;;;;9.28;63.87;95695.41;4981523;28;20551;-66
2023/03/25 05:45:28;;;;;;;9.30;1.70;;;;;;;9.30;62.95;95695.31;4968666;28;20899;-66
2023/03/25 05:47:54;;;;;;;2.63;1.50;;;;;;;9.30;61.78;95695.31;4969859;28;20192;-66
2023/03/25 05:50:20;;;;;;;4.37;1.50;;;;;;;9.24;62.08;95699.09;4981853;28;20700;-66
2023/03/25 05:52:48;;;;;;;1.80;1.30;;;;;;;9.09;62.69;95694.63;4983157;28;20681;-67
2023/03/25 05:55:19;;;;;;;6.03;1.60;;;;;;;9.23;62.25;95701.78;4981304;28;20448;-66
2023/03/25 05:57:45;;;;;;;3.00;1.50;;;;;;;9.20;62.54;95699.34;4968605;28;20528;-66
2023/03/25 06:00:11;;;;;;;1.93;1.17;;;;;;;9.19;61.65;95701.09;4981806;28;20900;-66
2023/03/25 06:02:38;;;;;;;2.40;1.33;;;;;;;9.20;61.35;95715.03;4981470;28;20184;-66
2023/03/25 06:05:05;;;;;;;7.97;1.67;;;;;;;9.11;61.90;95706.69;4981492;28;20496;-66
2023/03/25 06:07:31;;;;;;;2.63;1.20;;;;;;;9.27;60.37;95714.66;4972784;28;20464;-66
2023/03/25 06:09:56;;;;;;;2.73;1.40;;;;;;;9.20;59.83;95722.91;4984281;28;20519;-65
2023/03/25 06:12:26;;;;;;;2.03;1.03;;;;;;;9.17;59.58;95729.13;4980818;28;20530;-66
2023/03/25 06:14:52;;;;;;;2.60;1.20;;;;;;;9.19;60.41;95729.03;4982997;28;20188;-66
2023/03/25 06:17:20;;;;;;;2.10;1.00;;;;;;;10.40;56.64;95724.63;4972138;28;20515;-66
2023/03/25 06:19:47;;;;;;;3.07;1.10;;;;;;;11.33;53.09;95723.78;4981590;28;20494;-67
2023/03/25 06:22:13;;;;;;;1.87;1.30;;;;;;;12.99;49.17;95724.25;4979299;28;20456;-67
2023/03/25 06:24:40;;;;;;;1.97;1.10;;;;;;;13.69;45.79;95711.72;4982498;28;20819;-68
2023/03/25 06:27:14;;;;;;;2.50;1.00;;;;;;;13.73;46.34;95715.03;4977303;28;20460;-67
2023/03/25 06:29:40;;;;;;;2.10;0.93;;;;;;;14.56;43.80;95720.72;4975504;28;20432;-67
2023/03/25 06:32:07;;;;;;;3.80;1.17;;;;;;;15.32;42.11;95718.78;4984141;28;20502;-68
2023/03/25 06:34:33;;;;;;;1.87;1.20;;;;;;;16.01;40.50;95713.63;4982560;28;20436;-67
2023/03/25 06:37:17;;;;;;;15.10;2.63;;;;;;;16.51;39.13;95715.97;4989460;28;20853;-68
2023/03/25 06:39:48;;;;;;;3.93;1.40;;;;;;;16.36;39.11;95707.44;4985074;28;20444;-67
2023/03/25 06:42:14;;;;;;;6.53;1.10;;;;;;;14.25;43.53;95727.28;4979521;28;20479;-66
2023/03/25 06:44:40;;;;;;;3.73;1.07;;;;;;;13.08;46.72;95727.13;4987481;28;20562;-67
2023/03/25 06:47:05;;;;;;;4.30;1.33;;;;;;;12.06;50.10;95742.28;4985659;28;20499;-68
2023/03/25 06:49:31;;;;;;;3.97;1.13;;;;;;;12.04;49.86;95745.00;4988904;28;20181;-68
2023/03/25 06:51:59;;;;;;;6.20;1.27;;;;;;;13.63;47.10;95735.88;4981731;28;21897;-67
2023/03/25 06:54:24;;;;;;;10.33;3.43;;;;;;;14.79;43.46;95742.88;4983010;28;20185;-67
2023/03/25 06:56:50;;;;;;;10.03;1.73;;;;;;;14.79;43.05;95731.47;4983917;28;20468;-68
2023/03/25 06:59:15;;;;;;;5.70;1.87;;;;;;;13.17;47.38;95748.56;4981891;28;20623;-67
2023/03/25 07:01:42;;;;;;;4.60;1.13;;;;;;;13.18;46.49;95745.84;4979533;28;20606;-68
2023/03/25 07:04:10;;;;;;;5.73;1.53;;;;;;;12.25;49.15;95747.28;4989997;28;20331;-67
2023/03/25 07:06:35;;;;;;;6.83;1.50;;;;;;;11.89;50.86;95766.97;4989553;28;20525;-69
2023/03/25 07:09:21;;;;;;;5.67;1.40;;;;;;;11.54;52.15;95761.97;4988859;28;20431;-68
2023/03/25 07:11:47;;;;;;;9.87;1.57;;;;;;;11.11;53.70;95763.56;4983624;28;20212;-68
2023/03/25 07:14:12;;;;;;;9.30;1.40;;;;;;;10.99;53.96;95773.81;4978090;28;20428;-68
2023/03/25 07:16:37;;;;;;;2.77;1.23;;;;;;;10.86;54.42;95764.91;4988109;28;20211;-67
2023/03/25 07:19:06;;;;;;;10.30;1.50;;;;;;;10.91;53.72;95762.88;4985194;28;20577;-68
2023/03/25 07:21:31;;;;;;;1.73;1.03;;;;;;;11.01;53.80;95769.34;4988697;28;20184;-67
2023/03/25 07:23:57;;;;;;;4.00;1.57;;;;;;;10.81;54.92;95764.34;4985348;28;20475;-67
2023/03/25 07:26:22;;;;;;;2.97;1.10;;;;;;;11.05;54.86;95754.25;5000960;28;20262;-68
2023/03/25 07:28:48;;;;;;;2.70;1.20;;;;;;;11.71;53.18;95760.97;4980323;28;20185;-68
2023/03/25 07:31:15;;;;;;;2.03;1.00;;;;;;;12.80;50.01;95754.38;4981383;28;20494;-69
2023/03/25 07:33:40;;;;;;;6.70;1.10;;;;;;;13.64;47.86;95748.13;4985287;28;20206;-69
2023/03/25 07:36:07;;;;;;;2.50;1.23;;;;;;;13.52;47.57;95741.03;4982620;28;20460;-67
2023/03/25 07:38:34;;;;;;;2.80;1.40;;;;;;;12.89;49.16;95735.38;4980521;28;20181;-68
2023/03/25 07:41:03;;;;;;;2.90;1.33;;;;;;;12.16;50.35;95746.03;4981165;28;20451;-67
2023/03/25 07:43:31;;;;;;;4.83;1.20;;;;;;;11.93;50.65;95736.94;4983798;28;20526;-69
2023/03/25 07:45:57;;;;;;;3.27;1.67;;;;;;;11.53;53.04;95744.50;4980545;28;20451;-68
2023/03/25 07:48:26;;;;;;;2.07;1.10;;;;;;;11.50;52.99;95749.09;4983763;28;20443;-67
2023/03/25 07:50:55;;;;;;;3.07;1.30;;;;;;;11.28;53.23;95747.69;4986521;28;20192;-70
2023/03/25 07:53:20;;;;;;;2.37;0.90;;;;;;;11.32;53.11;95762.34;4977539;28;20455;-67
2023/03/25 07:55:47;;;;;;;2.40;1.23;;;;;;;11.21;54.15;95759.47;4979420;28;20460;-67
2023/03/25 07:58:12;;;;;;;1.90;1.10;;;;;;;11.22;53.88;95759.41;4985031;28;20277;-67
2023/03/25 08:00:38;;;;;;;5.20;1.20;;;;;;;11.14;53.71;95763.38;4980116;28;20544;-68
2023/03/25 08:03:03;;;;;;;2.37;1.27;;;;;;;11.08;53.81;95758.47;4980835;28;20300;-68
2023/03/25 08:05:30;;;;;;;4.20;1.10;;;;;;;11.07;53.72;95768.13;4984259;28;20968;-68
2023/03/25 08:07:58;;;;;;;3.80;1.00;;;;;;;10.73;55.01;95769.16;4973655;28;20195;-68
2023/03/25 08:10:24;;;;;;;3.60;1.30;;;;;;;10.89;54.41;95769.16;4975898;28;20506;-69
2023/03/25 08:12:52;;;;;;;1.93;1.37;;;;;;;10.88;54.38;95770.94;4970916;28;20445;-68
2023/03/25 08:15:17;;;;;;;6.00;1.00;;;;;;;10.89;53.79;95777.03;4980985;28;20424;-68
2023/03/25 08:17:42;;;;;;;2.10;0.93;;;;;;;10.82;54.22;95771.28;4982891;28;20515;-68
2023/03/25 08:20:08;;;;;;;9.40;1.30;;;;;;;10.77;54.43;95789.91;4988840;28;20205;-68
2023/03/25 08:22:35;;;;;;;4.17;1.20;;;;;;;10.71;54.79;95777.09;4986640;28;21012;-66
2023/03/25 08:25:00;;;;;;;2.80;0.90;;;;;;;10.63;54.89;95775.81;4975196;28;20222;-67
2023/03/25 08:27:26;;;;;;;1.40;1.10;;;;;;;10.65;55.03;95772.19;4987038;28;20506;-67
2023/03/25 08:29:58;;;;;;;1.93;1.00;;;;;;;10.62;55.66;95761.88;4983727;28;20193;-68
2023/03/25 08:32:26;;;;;;;5.33;1.10;;;;;;;10.52;55.80;95785.13;4980959;28;20173;-69
2023/03/25 08:34:51;;;;;;;9.93;2.60;;;;;;;10.48;55.35;95759.13;4981681;28;20452;-67
2023/03/25 08:37:17;;;;;;;8.40;1.30;;;;;;;10.57;55.36;95764.72;4987562;28;20513;-67
2023/03/25 08:39:43;;;;;;;3.20;1.27;;;;;;;10.54;55.70;95756.19;4987582;28;20192;-66
2023/03/25 08:42:11;;;;;;;7.73;1.30;;;;;;;10.60;55.37;95750.59;4979064;28;20220;-67
2023/03/25 08:44:36;;;;;;;2.63;1.00;;;;;;;10.59;55.64;95754.16;4983676;28;20471;-67
2023/03/25 08:47:02;;;;;;;4.20;1.70;;;;;;;10.58;55.25;95757.69;4982584;28;21148;-68
2023/03/25 08:49:28;;;;;;;1.77;1.37;;;;;;;10.52;55.83;95751.03;4980777;28;20743;-67
2023/03/25 08:51:53;;;;;;;2.83;1.20;;;;;;;10.75;55.02;95748.94;4987562;28;20670;-67
2023/03/25 08:54:19;;;;;;;1.80;0.90;;;;;;;10.60;55.61;95747.97;4988359;28;20267;-67
2023/03/25 08:56:45;;;;;;;2.60;1.07;;;;;;;10.52;55.68;95742.31;4982387;28;20217;-66
2023/03/25 08:59:11;;;;;;;8.23;1.30;;;;;;;10.67;55.31;95741.47;4979357;28;20259;-67
2023/03/25 09:01:37;;;;;;;2.60;1.33;;;;;;;10.68;55.14;95734.47;4979689;28;20188;-67
2023/03/25 09:04:03;;;;;;;4.17;1.47;;;;;;;10.73;55.18;95735.88;4978713;28;20475;-67
2023/03/25 09:06:28;;;;;;;3.43;1.30;;;;;;;10.71;56.54;95734.28;4979428;28;20662;-67
2023/03/25 09:08:54;;;;;;;6.23;1.30;;;;;;;10.62;57.94;95734.78;4978853;28;20295;-69
2023/03/25 09:11:20;;;;;;;1.83;0.97;;;;;;;10.73;56.49;95721.94;4982740;28;20185;-66
2023/03/25 09:13:46;;;;;;;4.27;1.10;;;;;;;10.73;57.05;95717.53;4984496;28;20443;-69
2023/03/25 09:16:11;;;;;;;2.80;1.07;;;;;;;10.83;55.73;95712.59;4969595;28;20263;-65
2023/03/25 09:18:37;;;;;;;3.60;1.27;;;;;;;10.93;55.30;95719.03;4971792;28;20212;-68
2023/03/25 09:21:03;;;;;;;12.77;1.70;;;;;;;10.83;55.95;95706.50;4977786;28;20199;-67
2023/03/25 09:23:29;;;;;;;3.13;1.30;;;;;;;10.86;55.70;95709.78;4984573;28;20682;-67
2023/03/25 09:25:58;;;;;;;6.43;2.10;;;;;;;10.73;55.23;95701.78;4981482;28;20563;-67
2023/03/25 09:28:24;;;;;;;5.43;1.37;;;;;;;10.75;55.09;95704.31;4982505;28;20212;-67
2023/03/25 09:30:49;;;;;;;8.73;2.00;;;;;;;10.71;55.24;95693.13;4982112;28;20476;-67
2023/03/25 09:33:15;;;;;;;2.03;1.60;;;;;;;10.86;54.68;95690.59;4976670;28;20201;-66
2023/03/25 09:35:40;;;;;;;3.40;1.37;;;;;;;11.10;54.68;95704.97;4986271;28;20193;-67
2023/03/25 09:38:06;;;;;;;3.27;1.40;;;;;;;11.20;54.23;95715.78;4981132;28;20523;-66
2023/03/25 09:40:33;;;;;;;3.00;1.43;;;;;;;11.20;54.73;95706.13;4967537;28;20272;-67
2023/03/25 09:43:17;;;;;;;1.97;1.43;;;;;;;11.23;54.54;95710.34;4970832;28;20247;-67
2023/03/25 09:45:47;;;;;;;2.83;1.10;;;;;;;11.49;53.46;95687.81;4976284;28;21072;-65
2023/03/25 09:48:38;;;;;;;4.33;1.20;;;;;;;11.40;53.35;95698.84;4980872;28;20192;-65
2023/03/25 09:51:10;;;;;;;4.97;1.80;;;;;;;11.33;53.29;95700.16;4974677;28;20788;-65
2023/03/25 09:54:03;;;;;;;5.00;1.40;;;;;;;11.60;52.72;95697.69;4971512;28;20520;-67
2023/03/25 09:56:34;;;;;;;2.43;1.40;;;;;;;11.45;52.62;95696.81;4980516;28;20439;-66
2023/03/25 09:59:09;;;;;;;1.53;1.10;;;;;;;11.43;52.17;95691.66;4978943;28;20956;-67
2023/03/25 10:01:37;;;;;;;2.30;1.27;;;;;;;11.38;52.32;95688.44;4983201;28;20423;-66
2023/03/25 10:04:21;;;;;;;3.93;2.80;;;;;;;11.27;51.99;95682.09;4978101;28;20893;-66
2023/03/25 10:07:16;;;;;;;3.67;1.50;;;;;;;11.05;53.57;95683.34;4983102;28;20571;-66
2023/03/25 10:09:47;;;;;;;3.53;1.60;;;;;;;11.23;53.29;95684.09;4977835;28;20794;-67
2023/03/25 10:12:24;;;;;;;1.37;1.00;;;;;;;11.57;53.07;95684.72;4982394;28;20423;-66
2023/03/25 10:15:25;;;;;;;5.27;1.50;;;;;;;11.62;52.86;95677.41;4982141;28;20434;-66
2023/03/25 10:18:18;;;;;;;4.13;1.30;;;;;;;11.65;52.64;95683.34;4985537;28;20447;-66
2023/03/25 10:21:10;;;;;;;2.27;1.83;;;;;;;11.61;53.13;95686.25;4982592;28;20423;-66
2023/03/25 10:23:49;;;;;;;3.33;1.27;;;;;;;11.65;53.47;95674.63;4985029;28;20483;-67
2023/03/25 10:26:26;;;;;;;2.37;1.10;;;;;;;11.74;53.60;95679.31;4986273;28;20510;-66
2023/03/25 10:29:06;;;;;;;2.90;1.07;;;;;;;11.96;53.59;95667.53;4986053;28;20462;-67
2023/03/25 10:31:35;;;;;;;2.50;1.53;;;;;;;12.15;52.51;95669.88;4986827;28;20486;-67
2023/03/25 10:34:16;;;;;;;11.43;1.47;;;;;;;12.25;52.04;95666.56;4984094;28;20439;-66
2023/03/25 10:36:50;;;;;;;8.10;1.67;;;;;;;12.01;51.97;95662.84;4982124;28;20451;-66
2023/03/25 10:39:21;;;;;;;2.17;1.27;;;;;;;11.94;51.90;95669.41;4984096;28;20435;-66
2023/03/25 10:41:57;;;;;;;8.67;1.97;;;;;;;12.09;52.26;95660.56;4981962;28;20443;-66
2023/03/25 10:44:25;;;;;;;4.80;1.40;;;;;;;12.32;51.96;95663.56;4976321;28;21103;-66
2023/03/25 10:47:01;;;;;;;4.87;2.00;;;;;;;12.58;50.79;95667.19;4976733;28;20471;-66
2023/03/25 10:49:30;;;;;;;5.67;1.30;;;;;;;12.71;50.70;95655.78;4980318;28;20435;-66
2023/03/25 10:51:58;;;;;;;2.77;1.30;;;;;;;13.10;50.10;95656.75;4985168;28;20444;-66
2023/03/25 10:54:28;;;;;;;3.23;1.20;;;;;;;13.43;49.13;95662.56;4980230;28;20432;-65
2023/03/25 10:57:02;;;;;;;1.70;1.20;;;;;;;13.39;48.48;95664.53;4982931;28;20451;-66
2023/03/25 10:59:52;;;;;;;6.43;1.63;;;;;;;12.83;50.13;95648.03;4984836;28;20431;-66
2023/03/25 11:02:21;;;;;;;6.53;1.17;;;;;;;13.11;50.18;95652.34;4972380;28;20442;-65
2023/03/25 11:04:51;;;;;;;6.30;1.00;;;;;;;13.22;49.52;95649.81;4980156;28;20878;-65
2023/03/25 11:07:31;;;;;;;6.73;1.70;;;;;;;13.38;50.87;95646.22;4985768;28;20531;-65
2023/03/25 11:10:26;;;;;;;2.40;1.30;;;;;;;13.15;52.94;95659.09;4978963;28;20535;-65
2023/03/25 11:12:52;;;;;;;2.40;1.10;;;;;;;12.92;52.64;95671.97;4982695;28;20412;-65
2023/03/25 11:15:20;;;;;;;1.40;0.97;;;;;;;12.54;53.77;95679.69;4980444;28;20416;-66
2023/03/25 11:17:47;;;;;;;2.40;1.17;;;;;;;12.78;55.22;95666.78;4986010;28;20721;-65
2023/03/25 11:20:20;;;;;;;3.00;1.37;;;;;;;12.91;54.39;95654.47;4988140;28;20993;-66
2023/03/25 11:22:50;;;;;;;1.50;0.93;;;;;;;13.28;51.99;95631.03;4989728;28;20416;-65
2023/03/25 11:25:22;;;;;;;12.30;2.30;;;;;;;13.12;50.82;95646.13;4983898;28;20456;-65
2023/03/25 11:27:54;;;;;;;6.80;1.10;;;;;;;13.48;49.56;95639.38;4988981;28;20450;-65
2023/03/25 11:30:21;;;;;;;2.30;0.90;;;;;;;13.60;50.21;95622.72;4989168;28;21161;-65
2023/03/25 11:33:02;;;;;;;10.30;1.20;;;;;;;14.00;49.85;95633.16;4981705;28;21021;-65
2023/03/25 11:35:30;;;;;;;2.23;0.90;;;;;;;13.95;48.29;95622.09;4982217;28;20442;-66
2023/03/25 11:37:59;;;;;;;2.37;1.00;;;;;;;13.88;48.23;95616.38;4980021;28;20934;-64
2023/03/25 11:40:27;;;;;;;1.33;0.80;;;;;;;13.53;48.39;95619.66;4984840;28;20502;-66
2023/03/25 11:42:57;;;;;;;1.33;1.00;;;;;;;13.90;47.62;95613.66;4984044;28;20776;-66
2023/03/25 11:45:30;;;;;;;1.40;0.80;;;;;;;14.24;46.24;95616.53;4983207;28;20904;-65
2023/03/25 11:48:07;;;;;;;7.33;1.30;;;;;;;14.08;45.53;95622.91;4987373;28;20440;-66
2023/03/25 11:50:34;;;;;;;2.20;1.53;;;;;;;13.90;46.92;95619.75;4986136;28;22315;-66
2023/03/25 11:53:02;;;;;;;3.40;1.00;;;;;;;13.83;48.07;95622.94;4985872;28;20458;-66